Time;durP1;ratioP1;P1;durP2;ratioP2;P2;SDS_P1;SDS_P2;PMS_P1;PMS_P2;Temp;Humidity;BMP_temperature;BMP_pressure;BME280_temperature;BME280_humidity;BME280_pressure;Samples;Min_cycle;Max_cycle;Signal;HPM_P1;HPM_P2
2023/05/08 00:02:06;;;;;;;;;;;19.80;99.90;;;;;;5076289;28;20021;-62
2023/05/08 00:04:32;;;;;;;;;;;19.80;99.90;;;;;;5076307;28;20450;-62
2023/05/08 00:06:57;;;;;;;;;;;19.80;99.90;;;;;;5076242;28;19985;-63
2023/05/08 00:09:23;;;;;;;;;;;19.60;99.90;;;;;;5076477;28;19992;-63
2023/05/08 00:11:48;;;;;;;;;;;19.60;99.90;;;;;;5076192;28;19985;-63
2023/05/08 00:14:14;;;;;;;;;;;19.50;99.90;;;;;;5075975;28;20027;-61
2023/05/08 00:16:40;;;;;;;;;;;19.50;99.90;;;;;;5076116;28;20016;-64
2023/05/08 00:19:06;;;;;;;;;;;19.50;99.90;;;;;;5076283;28;19985;-62
2023/05/08 00:21:31;;;;;;;;;;;19.50;99.90;;;;;;5075855;28;19981;-61
2023/05/08 00:23:57;;;;;;;;;;;19.40;99.90;;;;;;5076156;28;19985;-61
2023/05/08 00:26:22;;;;;;;;;;;19.30;99.90;;;;;;5075909;28;20096;-63
2023/05/08 00:28:48;;;;;;;;;;;19.10;99.90;;;;;;5075822;28;20004;-62
2023/05/08 00:31:13;;;;;;;;;;;19.10;99.90;;;;;;5075637;28;19990;-63
2023/05/08 00:33:39;;;;;;;;;;;19.10;99.90;;;;;;5075733;28;20471;-61
2023/05/08 00:36:05;;;;;;;;;;;19.00;99.90;;;;;;5075357;28;20018;-63
2023/05/08 00:38:31;;;;;;;;;;;18.80;99.90;;;;;;5075558;28;20084;-63
2023/05/08 00:40:57;;;;;;;;;;;18.70;99.90;;;;;;5075733;28;19989;-64
2023/05/08 00:43:25;;;;;;;;;;;18.70;99.90;;;;;;5075423;28;20001;-64
2023/05/08 00:45:51;;;;;;;;;;;18.70;99.90;;;;;;5075436;28;19990;-62
2023/05/08 00:48:17;;;;;;;;;;;18.70;99.90;;;;;;5075491;28;19990;-62
2023/05/08 00:50:43;;;;;;;;;;;18.80;99.90;;;;;;5075502;28;20060;-62
2023/05/08 00:53:10;;;;;;;;;;;18.80;99.90;;;;;;5075574;28;20404;-61
2023/05/08 00:55:36;;;;;;;;;;;18.80;99.90;;;;;;5075488;28;19985;-64
2023/05/08 00:58:02;;;;;;;;;;;18.80;99.90;;;;;;5075306;28;20007;-63
2023/05/08 01:00:27;;;;;;;;;;;18.80;99.90;;;;;;5075194;28;19986;-64
2023/05/08 01:02:53;;;;;;;;;;;18.80;99.90;;;;;;5075116;28;20021;-62
2023/05/08 01:05:19;;;;;;;;;;;18.60;99.90;;;;;;5074891;28;20007;-62
2023/05/08 01:07:45;;;;;;;;;;;18.60;99.90;;;;;;5075088;28;19981;-62
2023/05/08 01:10:10;;;;;;;;;;;18.60;99.90;;;;;;5074928;28;20029;-62
2023/05/08 01:12:42;;;;;;;;;;;18.50;99.90;;;;;;5075303;28;20091;-62
2023/05/08 01:15:07;;;;;;;;;;;18.60;99.90;;;;;;5074884;28;19982;-64
2023/05/08 01:17:42;;;;;;;;;;;18.60;99.90;;;;;;5074654;28;20031;-63
2023/05/08 01:20:26;;;;;;;;;;;18.40;99.90;;;;;;5074615;28;20359;-63
2023/05/08 01:23:00;;;;;;;;;;;18.10;99.90;;;;;;5074705;28;19985;-63
2023/05/08 01:25:45;;;;;;;;;;;17.60;99.90;;;;;;5074819;28;20501;-62
2023/05/08 01:28:29;;;;;;;;;;;17.30;99.90;;;;;;5074642;28;19986;-61
2023/05/08 01:31:11;;;;;;;;;;;17.50;99.90;;;;;;5074567;28;19989;-62
2023/05/08 01:33:48;;;;;;;;;;;17.60;99.90;;;;;;5074451;28;19986;-63
2023/05/08 01:36:20;;;;;;;;;;;17.50;99.90;;;;;;5074263;28;20065;-62
2023/05/08 01:38:52;;;;;;;;;;;17.30;99.90;;;;;;5074594;28;20076;-64
2023/05/08 01:41:23;;;;;;;;;;;17.20;99.90;;;;;;5073719;28;20471;-62
2023/05/08 01:43:54;;;;;;;;;;;17.10;99.90;;;;;;5074234;28;19997;-61
2023/05/08 01:46:24;;;;;;;;;;;17.00;99.90;;;;;;5074337;28;19982;-62
2023/05/08 01:49:02;;;;;;;;;;;17.10;99.90;;;;;;5074162;28;19993;-62
2023/05/08 01:51:34;;;;;;;;;;;17.00;99.90;;;;;;5074338;28;20031;-63
2023/05/08 01:54:02;;;;;;;;;;;17.10;99.90;;;;;;5074456;28;19986;-63
2023/05/08 01:56:28;;;;;;;;;;;17.20;99.90;;;;;;5074034;28;20071;-61
2023/05/08 01:58:55;;;;;;;;;;;17.40;99.90;;;;;;5074392;28;19992;-63
2023/05/08 02:01:22;;;;;;;;;;;17.60;99.90;;;;;;5074438;28;20042;-64
2023/05/08 02:03:49;;;;;;;;;;;17.70;99.90;;;;;;5074098;28;19986;-62
2023/05/08 02:06:16;;;;;;;;;;;17.70;99.90;;;;;;5074119;28;20071;-63
2023/05/08 02:08:43;;;;;;;;;;;17.70;99.90;;;;;;5073949;28;20430;-64
2023/05/08 02:11:09;;;;;;;;;;;17.60;99.90;;;;;;5073891;28;19988;-63
2023/05/08 02:13:35;;;;;;;;;;;17.30;99.90;;;;;;5073926;28;20017;-62
2023/05/08 02:16:02;;;;;;;;;;;17.30;99.90;;;;;;5073733;28;20502;-61
2023/05/08 02:18:28;;;;;;;;;;;17.50;99.90;;;;;;5073613;28;19986;-62
2023/05/08 02:20:55;;;;;;;;;;;17.70;99.90;;;;;;5073831;28;19989;-62
2023/05/08 02:23:22;;;;;;;;;;;17.80;99.90;;;;;;5073760;28;20443;-64
2023/05/08 02:25:48;;;;;;;;;;;17.90;99.90;;;;;;5074012;28;20076;-61
2023/05/08 02:28:14;;;;;;;;;;;18.00;99.90;;;;;;5074010;28;19985;-63
2023/05/08 02:30:40;;;;;;;;;;;18.00;99.90;;;;;;5074037;28;20079;-63
2023/05/08 02:33:07;;;;;;;;;;;17.90;99.90;;;;;;5073557;28;19982;-64
2023/05/08 02:35:32;;;;;;;;;;;17.90;99.90;;;;;;5073440;28;20109;-62
2023/05/08 02:37:59;;;;;;;;;;;18.00;99.90;;;;;;5073567;28;20108;-63
2023/05/08 02:40:26;;;;;;;;;;;18.00;99.90;;;;;;5073612;28;20072;-62
2023/05/08 02:42:52;;;;;;;;;;;18.00;99.90;;;;;;5073524;28;20031;-63
2023/05/08 02:45:18;;;;;;;;;;;18.00;99.90;;;;;;5073398;28;20453;-62
2023/05/08 02:47:51;;;;;;;;;;;18.00;99.90;;;;;;5073469;28;19992;-62
2023/05/08 02:50:19;;;;;;;;;;;17.80;99.90;;;;;;5073628;28;19992;-63
2023/05/08 02:52:49;;;;;;;;;;;17.70;99.90;;;;;;5074634;28;19981;-63
2023/05/08 02:55:18;;;;;;;;;;;17.50;99.90;;;;;;5077831;28;20051;-64
2023/05/08 02:57:49;;;;;;;;;;;17.30;99.90;;;;;;5077559;28;20380;-62
2023/05/08 03:00:17;;;;;;;;;;;17.20;99.90;;;;;;5077610;28;20004;-62
2023/05/08 03:02:46;;;;;;;;;;;17.00;99.90;;;;;;5077208;28;20448;-63
2023/05/08 03:05:19;;;;;;;;;;;16.90;99.90;;;;;;5077566;28;20436;-61
2023/05/08 03:07:47;;;;;;;;;;;16.80;99.90;;;;;;5077391;28;19989;-63
2023/05/08 03:10:14;;;;;;;;;;;16.80;99.90;;;;;;5077268;28;20437;-62
2023/05/08 03:12:43;;;;;;;;;;;16.70;99.90;;;;;;5077447;28;20465;-63
2023/05/08 03:15:17;;;;;;;;;;;16.80;99.90;;;;;;5077336;28;20413;-64
2023/05/08 03:17:44;;;;;;;;;;;16.90;99.90;;;;;;5077300;28;20075;-62
2023/05/08 03:20:13;;;;;;;;;;;17.00;99.90;;;;;;5077122;28;19989;-63
2023/05/08 03:22:40;;;;;;;;;;;17.10;99.90;;;;;;5077077;28;20031;-62
2023/05/08 03:25:08;;;;;;;;;;;17.20;99.90;;;;;;5077179;28;20390;-63
2023/05/08 03:27:34;;;;;;;;;;;17.20;99.90;;;;;;5077269;28;19989;-61
2023/05/08 03:30:00;;;;;;;;;;;17.30;99.90;;;;;;5076731;28;19981;-61
2023/05/08 03:32:27;;;;;;;;;;;17.20;99.90;;;;;;5076991;28;20432;-63
2023/05/08 03:34:54;;;;;;;;;;;17.20;99.90;;;;;;5077117;28;20497;-61
2023/05/08 03:37:20;;;;;;;;;;;17.00;99.90;;;;;;5076615;28;20017;-63
2023/05/08 03:39:45;;;;;;;;;;;16.90;99.90;;;;;;5076924;28;20135;-63
2023/05/08 03:42:20;;;;;;;;;;;17.10;99.90;;;;;;5076645;28;19982;-62
2023/05/08 03:44:52;;;;;;;;;;;17.20;99.90;;;;;;5076406;28;20023;-61
2023/05/08 03:47:18;;;;;;;;;;;17.10;99.90;;;;;;5076643;28;19988;-62
2023/05/08 03:49:45;;;;;;;;;;;17.20;99.90;;;;;;5076688;28;20454;-63
2023/05/08 03:52:11;;;;;;;;;;;17.40;99.90;;;;;;5076697;28;20024;-60
2023/05/08 03:54:37;;;;;;;;;;;17.40;99.90;;;;;;5076660;28;20042;-62
2023/05/08 03:57:02;;;;;;;;;;;17.40;99.90;;;;;;5076619;28;20010;-63
2023/05/08 03:59:48;;;;;;;;;;;17.30;99.90;;;;;;5076191;28;20080;-63
2023/05/08 04:02:35;;;;;;;;;;;17.20;99.90;;;;;;5076393;28;19981;-62
2023/05/08 04:05:08;;;;;;;;;;;17.20;99.90;;;;;;5075867;28;19997;-63
2023/05/08 04:07:40;;;;;;;;;;;17.30;99.90;;;;;;5076569;28;20454;-63
2023/05/08 04:10:10;;;;;;;;;;;17.40;99.90;;;;;;5076198;28;20440;-63
2023/05/08 04:12:45;;;;;;;;;;;17.50;99.90;;;;;;5076205;28;19996;-61
2023/05/08 04:15:19;;;;;;;;;;;17.60;99.90;;;;;;5075975;28;19985;-62
2023/05/08 04:17:48;;;;;;;;;;;17.70;99.90;;;;;;5075970;28;20456;-63
2023/05/08 04:20:15;;;;;;;;;;;17.70;99.90;;;;;;5076156;28;19981;-63
2023/05/08 04:22:42;;;;;;;;;;;17.70;99.90;;;;;;5075883;28;20043;-62
2023/05/08 04:25:08;;;;;;;;;;;17.70;99.90;;;;;;5075987;28;20358;-62
2023/05/08 04:27:34;;;;;;;;;;;17.90;99.90;;;;;;5075801;28;19981;-62
2023/05/08 04:30:00;;;;;;;;;;;18.10;99.90;;;;;;5075831;28;20008;-62
2023/05/08 04:32:26;;;;;;;;;;;18.10;99.90;;;;;;5075811;28;20072;-62
2023/05/08 04:34:52;;;;;;;;;;;18.20;99.90;;;;;;5075849;28;20064;-62
2023/05/08 04:37:22;;;;;;;;;;;18.30;99.90;;;;;;5075401;28;20174;-63
2023/05/08 04:39:49;;;;;;;;;;;18.30;99.90;;;;;;5075775;28;19982;-63
2023/05/08 04:42:15;;;;;;;;;;;18.40;99.90;;;;;;5075339;28;19985;-61
2023/05/08 04:44:40;;;;;;;;;;;18.50;99.90;;;;;;5075500;28;20008;-62
2023/05/08 04:47:06;;;;;;;;;;;18.50;99.90;;;;;;5075498;28;19986;-62
2023/05/08 04:49:31;;;;;;;;;;;18.50;99.90;;;;;;5075551;28;19982;-62
2023/05/08 04:51:57;;;;;;;;;;;18.50;99.90;;;;;;5075465;28;19982;-61
2023/05/08 04:54:22;;;;;;;;;;;18.50;99.90;;;;;;5075314;28;20069;-63
2023/05/08 04:56:48;;;;;;;;;;;18.60;99.90;;;;;;5074998;28;20008;-64
2023/05/08 04:59:14;;;;;;;;;;;18.60;99.90;;;;;;5075242;28;20026;-62
2023/05/08 05:01:39;;;;;;;;;;;18.70;99.90;;;;;;5075065;28;19992;-61
2023/05/08 05:04:05;;;;;;;;;;;18.70;99.90;;;;;;5075175;28;19989;-62
2023/05/08 05:06:32;;;;;;;;;;;18.70;99.90;;;;;;5074721;28;20451;-65
2023/05/08 05:08:58;;;;;;;;;;;18.70;99.90;;;;;;5074784;28;20076;-64
2023/05/08 05:11:23;;;;;;;;;;;18.70;99.90;;;;;;5074568;28;20032;-61
2023/05/08 05:13:49;;;;;;;;;;;18.80;99.90;;;;;;5073436;28;19982;-63
2023/05/08 05:16:15;;;;;;;;;;;18.70;99.90;;;;;;5072759;28;19981;-61
2023/05/08 05:18:40;;;;;;;;;;;18.60;99.90;;;;;;5075027;28;19989;-66
2023/05/08 05:21:06;;;;;;;;;;;18.60;99.90;;;;;;5074762;28;19987;-62
2023/05/08 05:23:31;;;;;;;;;;;18.60;99.90;;;;;;5074707;28;20017;-65
2023/05/08 05:25:57;;;;;;;;;;;18.70;99.90;;;;;;5074803;28;19990;-61
2023/05/08 05:28:22;;;;;;;;;;;18.80;99.90;;;;;;5074747;28;20492;-61
2023/05/08 05:30:48;;;;;;;;;;;18.80;99.90;;;;;;5074953;28;20402;-61
2023/05/08 05:33:14;;;;;;;;;;;18.80;99.90;;;;;;5073512;28;20390;-62
2023/05/08 05:35:39;;;;;;;;;;;18.80;99.90;;;;;;5073159;28;19982;-64
2023/05/08 05:38:05;;;;;;;;;;;18.70;99.90;;;;;;5071510;28;20015;-62
2023/05/08 05:40:31;;;;;;;;;;;18.80;99.90;;;;;;5072978;28;19993;-62
2023/05/08 05:42:56;;;;;;;;;;;18.80;99.90;;;;;;5073365;28;19989;-62
2023/05/08 05:45:22;;;;;;;;;;;18.80;99.90;;;;;;5072459;28;20001;-63
2023/05/08 05:47:48;;;;;;;;;;;18.90;99.90;;;;;;5073039;28;20064;-63
2023/05/08 05:50:14;;;;;;;;;;;18.80;99.90;;;;;;5073607;28;19981;-63
2023/05/08 05:52:40;;;;;;;;;;;18.80;99.90;;;;;;5073982;28;20108;-64
2023/05/08 05:55:06;;;;;;;;;;;18.80;99.90;;;;;;5073371;28;19981;-63
2023/05/08 05:57:31;;;;;;;;;;;18.90;99.90;;;;;;5072962;28;20418;-64
2023/05/08 05:59:58;;;;;;;;;;;18.90;99.90;;;;;;5073411;28;19988;-64
2023/05/08 06:02:24;;;;;;;;;;;18.90;99.90;;;;;;5074134;28;20008;-63
2023/05/08 06:04:52;;;;;;;;;;;18.90;99.90;;;;;;5073753;28;19981;-61
2023/05/08 06:07:19;;;;;;;;;;;18.90;99.90;;;;;;5073868;28;19982;-63
2023/05/08 06:09:45;;;;;;;;;;;18.90;99.90;;;;;;5073484;28;20099;-63
2023/05/08 06:12:11;;;;;;;;;;;18.90;99.90;;;;;;5072442;28;19985;-61
2023/05/08 06:14:37;;;;;;;;;;;18.90;99.90;;;;;;5070262;28;19989;-63
2023/05/08 06:17:02;;;;;;;;;;;18.70;99.90;;;;;;5086233;28;20146;-63
2023/05/08 06:19:28;;;;;;;;;;;18.80;99.90;;;;;;5092378;28;19996;-63
2023/05/08 06:21:53;;;;;;;;;;;18.90;99.90;;;;;;5091926;28;20035;-63
2023/05/08 06:24:19;;;;;;;;;;;18.90;99.90;;;;;;5107503;28;19992;-63
2023/05/08 06:26:45;;;;;;;;;;;19.00;99.90;;;;;;5114354;28;20396;-63
2023/05/08 06:29:11;;;;;;;;;;;19.00;99.90;;;;;;5113756;28;19988;-63
2023/05/08 06:31:37;;;;;;;;;;;18.90;99.90;;;;;;5103077;28;20340;-62
2023/05/08 06:34:03;;;;;;;;;;;18.90;99.90;;;;;;5093650;28;20079;-63
2023/05/08 06:36:28;;;;;;;;;;;19.10;99.90;;;;;;5092752;28;20039;-62
2023/05/08 06:38:56;;;;;;;;;;;19.10;99.90;;;;;;5092051;28;20319;-61
2023/05/08 06:41:22;;;;;;;;;;;19.30;99.90;;;;;;5093018;28;19981;-63
2023/05/08 06:43:47;;;;;;;;;;;19.40;99.90;;;;;;5093266;28;20079;-62
2023/05/08 06:46:13;;;;;;;;;;;19.40;99.90;;;;;;5092747;28;19985;-61
2023/05/08 06:48:38;;;;;;;;;;;19.30;99.90;;;;;;5080041;28;20463;-62
2023/05/08 06:51:04;;;;;;;;;;;19.10;99.90;;;;;;5077908;28;20020;-61
2023/05/08 06:53:30;;;;;;;;;;;19.10;99.90;;;;;;5077134;28;19989;-60
2023/05/08 06:55:58;;;;;;;;;;;19.00;99.90;;;;;;5085386;28;19989;-63
2023/05/08 06:58:31;;;;;;;;;;;19.00;99.90;;;;;;5075605;28;20059;-63
2023/05/08 07:01:00;;;;;;;;;;;19.00;99.90;;;;;;5084725;28;20427;-59
2023/05/08 07:03:27;;;;;;;;;;;18.90;99.90;;;;;;5080481;28;19989;-61
2023/05/08 07:05:53;;;;;;;;;;;19.00;99.90;;;;;;5075302;28;19993;-61
2023/05/08 07:08:18;;;;;;;;;;;19.00;99.90;;;;;;5088166;28;19985;-61
2023/05/08 07:10:48;;;;;;;;;;;19.10;99.90;;;;;;5098579;28;20046;-64
2023/05/08 07:13:18;;;;;;;;;;;19.10;99.90;;;;;;5090639;28;19987;-62
2023/05/08 07:15:48;;;;;;;;;;;19.10;99.90;;;;;;5094586;28;20331;-62
2023/05/08 07:18:14;;;;;;;;;;;19.10;99.90;;;;;;5082601;28;20019;-61
2023/05/08 07:20:39;;;;;;;;;;;19.00;99.90;;;;;;5093943;28;19981;-62
2023/05/08 07:23:05;;;;;;;;;;;19.10;99.90;;;;;;5092370;28;19996;-62
2023/05/08 07:25:44;;;;;;;;;;;19.10;99.90;;;;;;5100105;28;20000;-63
2023/05/08 07:28:10;;;;;;;;;;;19.10;99.90;;;;;;5091052;28;19989;-61
2023/05/08 07:30:50;;;;;;;;;;;19.20;99.90;;;;;;5095526;28;20396;-60
2023/05/08 07:33:17;;;;;;;;;;;19.20;99.90;;;;;;5102560;28;20327;-60
2023/05/08 07:36:11;;;;;;;;;;;19.20;99.90;;;;;;5093709;28;20313;-62
2023/05/08 07:38:37;;;;;;;;;;;19.00;99.90;;;;;;5090917;28;20080;-62
2023/05/08 07:41:04;;;;;;;;;;;18.90;99.90;;;;;;5084099;28;20077;-60
2023/05/08 07:43:30;;;;;;;;;;;18.80;99.90;;;;;;5085728;28;20060;-61
2023/05/08 07:45:56;;;;;;;;;;;18.70;99.90;;;;;;5080583;28;20080;-62
2023/05/08 07:48:22;;;;;;;;;;;18.70;99.90;;;;;;5084390;28;19988;-60
2023/05/08 07:50:53;;;;;;;;;;;18.60;99.90;;;;;;5085567;28;20370;-63
2023/05/08 07:53:19;;;;;;;;;;;18.40;99.90;;;;;;5079248;28;20004;-59
2023/05/08 07:55:48;;;;;;;;;;;18.40;99.90;;;;;;5086070;28;19989;-61
2023/05/08 07:58:14;;;;;;;;;;;18.30;99.90;;;;;;5089299;28;20375;-61
2023/05/08 08:00:43;;;;;;;;;;;18.30;99.90;;;;;;5084915;28;20110;-61
2023/05/08 08:03:09;;;;;;;;;;;18.30;99.90;;;;;;5081356;28;19989;-63
2023/05/08 08:05:44;;;;;;;;;;;18.10;99.90;;;;;;5085267;28;19989;-60
2023/05/08 08:08:10;;;;;;;;;;;18.20;99.90;;;;;;5081561;28;19989;-61
2023/05/08 08:10:37;;;;;;;;;;;18.20;99.90;;;;;;5085468;28;19997;-60
2023/05/08 08:13:03;;;;;;;;;;;18.20;99.90;;;;;;5080497;28;20042;-59
2023/05/08 08:15:28;;;;;;;;;;;18.30;99.90;;;;;;5077633;28;19993;-61
2023/05/08 08:17:54;;;;;;;;;;;18.30;99.90;;;;;;5077159;28;20005;-61
2023/05/08 08:20:20;;;;;;;;;;;18.20;99.90;;;;;;5079842;28;20377;-61
2023/05/08 08:22:45;;;;;;;;;;;18.20;99.90;;;;;;5076249;28;19990;-60
2023/05/08 08:25:11;;;;;;;;;;;18.30;99.90;;;;;;5081350;28;20455;-64
2023/05/08 08:27:36;;;;;;;;;;;18.30;99.90;;;;;;5087141;28;20352;-60
2023/05/08 08:30:02;;;;;;;;;;;18.30;99.90;;;;;;5081336;28;20104;-62
2023/05/08 08:32:27;;;;;;;;;;;18.30;99.90;;;;;;5085259;28;21940;-63
2023/05/08 08:34:53;;;;;;;;;;;18.30;99.90;;;;;;5087678;28;19985;-63
2023/05/08 08:37:19;;;;;;;;;;;18.50;99.90;;;;;;5081457;28;20580;-61
2023/05/08 08:39:44;;;;;;;;;;;18.40;99.90;;;;;;5079906;28;20422;-61
2023/05/08 08:42:11;;;;;;;;;;;18.40;99.90;;;;;;5093040;28;19985;-61
2023/05/08 08:44:36;;;;;;;;;;;18.30;99.90;;;;;;5090208;28;20016;-62
2023/05/08 08:47:04;;;;;;;;;;;18.50;99.90;;;;;;5089155;28;20733;-62
2023/05/08 08:49:30;;;;;;;;;;;18.50;99.90;;;;;;5089310;28;20004;-62
2023/05/08 08:52:05;;;;;;;;;;;18.60;99.90;;;;;;5091572;28;19988;-60
2023/05/08 08:54:33;;;;;;;;;;;18.60;99.90;;;;;;5080291;28;20488;-61
2023/05/08 08:57:06;;;;;;;;;;;18.60;99.90;;;;;;5072059;28;20016;-60
2023/05/08 08:59:32;;;;;;;;;;;18.60;99.90;;;;;;5071523;28;20420;-61
2023/05/08 09:02:01;;;;;;;;;;;18.60;99.90;;;;;;5069298;28;19996;-60
2023/05/08 09:04:28;;;;;;;;;;;18.60;99.90;;;;;;5072899;28;19997;-61
2023/05/08 09:06:54;;;;;;;;;;;18.60;99.90;;;;;;5082962;28;19996;-60
2023/05/08 09:09:20;;;;;;;;;;;18.60;99.90;;;;;;5072762;28;19985;-60
2023/05/08 09:11:45;;;;;;;;;;;18.50;99.90;;;;;;5081497;28;20039;-60
2023/05/08 09:14:11;;;;;;;;;;;18.50;99.90;;;;;;5091028;28;20060;-60
2023/05/08 09:16:37;;;;;;;;;;;18.40;99.90;;;;;;5073982;28;20010;-62
2023/05/08 09:19:02;;;;;;;;;;;18.40;99.90;;;;;;5090186;28;19989;-60
2023/05/08 09:21:28;;;;;;;;;;;18.40;99.90;;;;;;5093319;28;20493;-60
2023/05/08 09:23:57;;;;;;;;;;;18.40;99.90;;;;;;5093584;28;19985;-61
2023/05/08 09:26:27;;;;;;;;;;;18.40;99.90;;;;;;5092696;28;19986;-62
2023/05/08 09:29:12;;;;;;;;;;;18.40;99.90;;;;;;5090993;28;20061;-60
2023/05/08 09:31:39;;;;;;;;;;;18.40;99.90;;;;;;5093242;28;19986;-61
2023/05/08 09:34:06;;;;;;;;;;;18.30;99.90;;;;;;5094508;28;20118;-63
2023/05/08 09:36:33;;;;;;;;;;;18.30;99.90;;;;;;5075602;28;20028;-61
2023/05/08 09:39:00;;;;;;;;;;;18.30;99.90;;;;;;5073351;28;20347;-63
2023/05/08 09:41:25;;;;;;;;;;;18.30;99.90;;;;;;5074228;28;20443;-62
2023/05/08 09:44:17;;;;;;;;;;;18.40;99.90;;;;;;5090341;28;20032;-62
2023/05/08 09:46:44;;;;;;;;;;;18.40;99.90;;;;;;5085609;28;20047;-61
2023/05/08 09:49:16;;;;;;;;;;;18.40;99.90;;;;;;5092338;28;20388;-62
2023/05/08 09:51:50;;;;;;;;;;;18.40;99.90;;;;;;5087831;28;20088;-62
2023/05/08 09:54:16;;;;;;;;;;;18.30;99.90;;;;;;5093712;28;19982;-62
2023/05/08 09:56:42;;;;;;;;;;;18.10;99.90;;;;;;5092078;28;20005;-62
2023/05/08 09:59:25;;;;;;;;;;;18.20;99.90;;;;;;5084449;28;20075;-62
2023/05/08 10:01:51;;;;;;;;;;;18.10;99.90;;;;;;5071250;28;19989;-62
2023/05/08 10:04:16;;;;;;;;;;;18.30;99.90;;;;;;5083629;28;20454;-66
2023/05/08 10:06:42;;;;;;;;;;;18.40;99.90;;;;;;5092107;28;20436;-62
2023/05/08 10:09:12;;;;;;;;;;;18.50;99.90;;;;;;5092620;28;19988;-61
2023/05/08 10:11:38;;;;;;;;;;;18.30;99.90;;;;;;5089704;28;20076;-60
2023/05/08 10:14:04;;;;;;;;;;;18.30;99.90;;;;;;5091481;28;19987;-62
2023/05/08 10:16:30;;;;;;;;;;;18.20;99.90;;;;;;5091375;28;20410;-63
2023/05/08 10:18:59;;;;;;;;;;;18.40;99.90;;;;;;5073740;28;20043;-60
2023/05/08 10:21:27;;;;;;;;;;;18.50;99.90;;;;;;5071814;28;19989;-61
2023/05/08 10:23:55;;;;;;;;;;;18.60;99.90;;;;;;5071995;28;20439;-59
2023/05/08 10:26:26;;;;;;;;;;;18.70;99.90;;;;;;5072427;28;19989;-59
2023/05/08 10:28:58;;;;;;;;;;;18.70;99.90;;;;;;5072590;28;19990;-66
2023/05/08 10:31:25;;;;;;;;;;;18.80;99.90;;;;;;5074063;28;20097;-61
2023/05/08 10:33:54;;;;;;;;;;;18.70;99.90;;;;;;5086111;28;19994;-62
2023/05/08 10:36:20;;;;;;;;;;;18.70;99.90;;;;;;5076870;28;20025;-62
2023/05/08 10:38:46;;;;;;;;;;;18.70;99.90;;;;;;5086639;28;19989;-61
2023/05/08 10:41:12;;;;;;;;;;;18.70;99.90;;;;;;5076667;28;20050;-60
2023/05/08 10:43:41;;;;;;;;;;;18.70;99.90;;;;;;5072652;28;20499;-61
2023/05/08 10:46:10;;;;;;;;;;;18.70;99.90;;;;;;5082955;28;20402;-61
2023/05/08 10:48:39;;;;;;;;;;;18.80;99.90;;;;;;5080956;28;20146;-60
2023/05/08 10:51:07;;;;;;;;;;;18.80;99.90;;;;;;5083283;28;20084;-61
2023/05/08 10:53:35;;;;;;;;;;;18.70;99.90;;;;;;5076419;28;19986;-61
2023/05/08 10:56:01;;;;;;;;;;;18.50;99.90;;;;;;5084487;28;19993;-61
2023/05/08 10:58:29;;;;;;;;;;;18.50;99.90;;;;;;5076602;28;20073;-61
2023/05/08 11:01:16;;;;;;;;;;;18.60;99.90;;;;;;5080908;28;19990;-62
2023/05/08 11:03:43;;;;;;;;;;;18.70;99.90;;;;;;5088754;28;20027;-62
2023/05/08 11:06:09;;;;;;;;;;;18.80;99.90;;;;;;5081122;28;20367;-61
2023/05/08 11:08:42;;;;;;;;;;;19.00;99.90;;;;;;5078385;28;20094;-61
2023/05/08 11:11:13;;;;;;;;;;;19.00;99.90;;;;;;5076682;28;19985;-64
2023/05/08 11:13:59;;;;;;;;;;;19.10;99.90;;;;;;5073144;28;20039;-62
2023/05/08 11:16:43;;;;;;;;;;;19.10;99.90;;;;;;5081126;28;20126;-61
2023/05/08 11:19:17;;;;;;;;;;;19.10;99.90;;;;;;5075308;28;19996;-60
2023/05/08 11:22:01;;;;;;;;;;;19.10;99.90;;;;;;5082660;28;19989;-61
2023/05/08 11:24:36;;;;;;;;;;;19.00;99.90;;;;;;5092134;28;19993;-60
2023/05/08 11:27:02;;;;;;;;;;;18.90;99.90;;;;;;5102203;28;20020;-60
2023/05/08 11:29:28;;;;;;;;;;;18.70;99.90;;;;;;5081258;28;20374;-60
2023/05/08 11:31:53;;;;;;;;;;;18.70;99.90;;;;;;5086261;28;19986;-61
2023/05/08 11:34:38;;;;;;;;;;;18.80;99.90;;;;;;5083860;28;19985;-60
2023/05/08 11:37:07;;;;;;;;;;;18.80;99.90;;;;;;5074369;28;20025;-60
2023/05/08 11:39:33;;;;;;;;;;;18.60;99.90;;;;;;5074675;28;20003;-60
2023/05/08 11:42:17;;;;;;;;;;;18.60;99.90;;;;;;5085623;28;20087;-60
2023/05/08 11:44:42;;;;;;;;;;;18.60;99.90;;;;;;5094502;28;20680;-60
2023/05/08 11:47:09;;;;;;;;;;;18.60;99.90;;;;;;5094663;28;20093;-61
2023/05/08 11:49:35;;;;;;;;;;;18.60;99.90;;;;;;5095564;28;19981;-60
2023/05/08 11:52:03;;;;;;;;;;;18.60;99.90;;;;;;5096362;28;20447;-62
2023/05/08 11:54:29;;;;;;;;;;;18.40;99.90;;;;;;5096730;28;19982;-61
2023/05/08 11:56:56;;;;;;;;;;;18.20;99.90;;;;;;5095973;28;20020;-61
2023/05/08 11:59:21;;;;;;;;;;;18.30;99.90;;;;;;5093925;28;20087;-60
2023/05/08 12:01:50;;;;;;;;;;;18.40;99.90;;;;;;5094515;28;20024;-60
2023/05/08 12:04:16;;;;;;;;;;;18.50;99.90;;;;;;5095477;28;19981;-60
2023/05/08 12:06:43;;;;;;;;;;;18.50;99.90;;;;;;5106994;28;20416;-61
2023/05/08 12:09:10;;;;;;;;;;;18.50;99.90;;;;;;5075437;28;19993;-61
2023/05/08 12:11:36;;;;;;;;;;;18.40;99.90;;;;;;5080096;28;19989;-61
2023/05/08 12:14:02;;;;;;;;;;;18.40;99.90;;;;;;5094316;28;20369;-62
2023/05/08 12:16:27;;;;;;;;;;;18.40;99.90;;;;;;5091506;28;20363;-61
2023/05/08 12:18:55;;;;;;;;;;;18.40;99.90;;;;;;5093352;28;20084;-61
2023/05/08 12:21:21;;;;;;;;;;;18.40;99.90;;;;;;5094971;28;19992;-62
2023/05/08 12:23:47;;;;;;;;;;;18.40;99.90;;;;;;5093614;28;20056;-61
2023/05/08 12:26:13;;;;;;;;;;;18.50;99.90;;;;;;5094663;28;19985;-61
2023/05/08 12:28:39;;;;;;;;;;;18.50;99.90;;;;;;5094259;28;19989;-61
2023/05/08 12:31:05;;;;;;;;;;;18.50;99.90;;;;;;5091470;28;19981;-61
2023/05/08 12:33:32;;;;;;;;;;;18.50;99.90;;;;;;5093707;28;20461;-61
2023/05/08 12:35:59;;;;;;;;;;;18.60;99.90;;;;;;5092817;28;19984;-61
2023/05/08 12:38:25;;;;;;;;;;;18.70;99.90;;;;;;5090430;28;20005;-61
2023/05/08 12:40:57;;;;;;;;;;;18.70;99.90;;;;;;5091734;28;19989;-61
2023/05/08 12:43:33;;;;;;;;;;;18.70;99.90;;;;;;5092720;28;19981;-62
2023/05/08 12:45:59;;;;;;;;;;;18.70;99.90;;;;;;5094083;28;19985;-61
2023/05/08 12:48:25;;;;;;;;;;;18.60;99.90;;;;;;5093910;28;19981;-61
2023/05/08 12:50:51;;;;;;;;;;;18.50;99.90;;;;;;5094426;28;19989;-62
2023/05/08 12:53:17;;;;;;;;;;;18.50;99.90;;;;;;5093891;28;20439;-60
2023/05/08 12:55:56;;;;;;;;;;;18.40;99.90;;;;;;5093204;28;19981;-61
2023/05/08 12:58:31;;;;;;;;;;;18.30;99.90;;;;;;5091803;28;20009;-61
2023/05/08 13:01:08;;;;;;;;;;;18.30;99.90;;;;;;5093828;28;20381;-62
2023/05/08 13:03:34;;;;;;;;;;;18.50;99.90;;;;;;5094589;28;20358;-61
2023/05/08 13:06:00;;;;;;;;;;;18.50;99.90;;;;;;5094586;28;19985;-61
2023/05/08 13:08:32;;;;;;;;;;;18.60;99.90;;;;;;5094948;28;20040;-62
2023/05/08 13:10:59;;;;;;;;;;;18.60;99.90;;;;;;5094714;28;19981;-61
2023/05/08 13:13:25;;;;;;;;;;;18.60;99.90;;;;;;5095594;28;19984;-61
2023/05/08 13:15:52;;;;;;;;;;;18.60;99.90;;;;;;5094457;28;20005;-61
2023/05/08 13:18:18;;;;;;;;;;;18.40;99.90;;;;;;5094781;28;20008;-62
2023/05/08 13:20:45;;;;;;;;;;;18.30;99.90;;;;;;5094590;28;20084;-61
2023/05/08 13:23:10;;;;;;;;;;;18.00;99.90;;;;;;5095136;28;19988;-62
2023/05/08 13:25:36;;;;;;;;;;;17.90;99.90;;;;;;5094928;28;19981;-61
2023/05/08 13:28:02;;;;;;;;;;;17.70;99.90;;;;;;5095181;28;20431;-62
2023/05/08 13:30:28;;;;;;;;;;;17.70;99.90;;;;;;5095110;28;20068;-62
2023/05/08 13:32:54;;;;;;;;;;;18.00;99.90;;;;;;5094958;28;20462;-61
2023/05/08 13:35:20;;;;;;;;;;;18.30;99.90;;;;;;5094821;28;20036;-61
2023/05/08 13:37:46;;;;;;;;;;;18.40;99.90;;;;;;5093796;28;20112;-62
2023/05/08 13:40:12;;;;;;;;;;;18.20;99.90;;;;;;5094687;28;20083;-62
2023/05/08 13:42:37;;;;;;;;;;;18.20;99.90;;;;;;5094951;28;19981;-62
2023/05/08 13:45:04;;;;;;;;;;;18.10;99.90;;;;;;5094836;28;20393;-62
2023/05/08 13:47:30;;;;;;;;;;;18.20;99.90;;;;;;5094948;28;19985;-61
2023/05/08 13:49:56;;;;;;;;;;;18.20;99.90;;;;;;5094578;28;19988;-61
2023/05/08 13:52:21;;;;;;;;;;;18.10;99.90;;;;;;5094716;28;20024;-62
2023/05/08 13:54:47;;;;;;;;;;;18.20;99.90;;;;;;5094361;28;20386;-62
2023/05/08 13:57:12;;;;;;;;;;;18.20;99.90;;;;;;5094450;28;20004;-61
2023/05/08 13:59:38;;;;;;;;;;;18.30;99.90;;;;;;5094275;28;19988;-60
2023/05/08 14:02:03;;;;;;;;;;;18.30;99.90;;;;;;5094437;28;19981;-61
2023/05/08 14:04:29;;;;;;;;;;;18.20;99.90;;;;;;5094385;28;20352;-62
2023/05/08 14:06:54;;;;;;;;;;;18.30;99.90;;;;;;5094179;28;19981;-61
2023/05/08 14:09:20;;;;;;;;;;;18.20;99.90;;;;;;5094131;28;19989;-62
2023/05/08 14:11:46;;;;;;;;;;;18.30;99.90;;;;;;5094202;28;19989;-62
2023/05/08 14:14:11;;;;;;;;;;;18.30;99.90;;;;;;5094428;28;19992;-62
2023/05/08 14:16:37;;;;;;;;;;;18.40;99.90;;;;;;5094337;28;20016;-61
2023/05/08 14:19:02;;;;;;;;;;;18.30;99.90;;;;;;5094175;28;20004;-61
2023/05/08 14:21:28;;;;;;;;;;;18.30;99.90;;;;;;5094035;28;20004;-61